createdAt,value
2023-06-01T00:00:47.392Z,17.14
2023-06-01T00:03:16.257Z,17.17
2023-06-01T00:05:43.446Z,17.21
2023-06-01T00:08:31.006Z,17.16
2023-06-01T00:12:15.311Z,16.97
2023-06-01T00:15:58.669Z,17.06
2023-06-01T00:18:28.638Z,17.03
2023-06-01T00:20:56.458Z,16.96
2023-06-01T00:23:27.070Z,16.94
2023-06-01T00:27:09.616Z,16.92
2023-06-01T00:30:53.983Z,16.87
2023-06-01T00:33:22.213Z,16.81
2023-06-01T00:35:50.844Z,16.82
2023-06-01T00:38:20.582Z,16.81
2023-06-01T00:40:52.104Z,16.87
2023-06-01T00:43:20.639Z,16.77
2023-06-01T00:47:04.315Z,16.72
2023-06-01T00:49:32.043Z,16.58
2023-06-01T00:53:14.993Z,16.55
2023-06-01T00:56:57.978Z,16.29
2023-06-01T00:59:30.085Z,16.24
2023-06-01T01:01:57.997Z,16.28
2023-06-01T01:05:42.917Z,16.30
2023-06-01T01:08:43.506Z,16.25
2023-06-01T01:11:29.330Z,16.15
2023-06-01T01:14:38.882Z,16.18
2023-06-01T01:17:32.185Z,16.16
2023-06-01T01:20:29.720Z,16.16
2023-06-01T01:23:21.392Z,16.12
2023-06-01T01:26:46.570Z,16.14
2023-06-01T01:29:16.878Z,16.04
2023-06-01T01:31:51.004Z,15.98
2023-06-01T01:35:34.195Z,15.91
2023-06-01T01:39:18.405Z,15.96
2023-06-01T01:43:02.414Z,15.91
2023-06-01T01:46:46.309Z,15.86
2023-06-01T01:49:28.731Z,15.76
2023-06-01T01:52:22.587Z,15.76
2023-06-01T01:56:04.985Z,15.87
2023-06-01T01:59:47.978Z,15.99
2023-06-01T02:03:30.690Z,15.87
2023-06-01T02:07:13.880Z,15.73
2023-06-01T02:10:56.592Z,15.78
2023-06-01T02:13:23.710Z,15.84
2023-06-01T02:17:06.596Z,15.75
2023-06-01T02:19:34.954Z,15.68
2023-06-01T02:22:02.648Z,15.57
2023-06-01T02:24:30.294Z,15.55
2023-06-01T02:26:57.696Z,15.49
2023-06-01T02:29:25.574Z,15.49
2023-06-01T02:31:54.024Z,15.50
2023-06-01T02:34:21.735Z,15.39
2023-06-01T02:36:49.468Z,15.57
2023-06-01T02:39:19.830Z,15.57
2023-06-01T02:41:47.694Z,15.46
2023-06-01T02:44:15.574Z,15.45
2023-06-01T02:46:43.550Z,15.31
2023-06-01T02:49:11.016Z,15.29
2023-06-01T02:51:38.143Z,15.37
2023-06-01T02:54:13.851Z,15.29
2023-06-01T02:56:41.888Z,15.34
2023-06-01T02:59:09.443Z,15.28
2023-06-01T03:01:42.947Z,15.20
2023-06-01T03:04:13.182Z,15.29
2023-06-01T03:06:41.588Z,15.19
2023-06-01T03:09:27.587Z,14.56
2023-06-01T03:12:03.058Z,14.60
2023-06-01T03:14:31.636Z,14.74
2023-06-01T03:16:58.846Z,14.88
2023-06-01T03:19:27.041Z,14.76
2023-06-01T03:21:57.671Z,14.76
2023-06-01T03:24:29.119Z,14.80
2023-06-01T03:26:59.741Z,14.42
2023-06-01T03:29:28.714Z,14.23
2023-06-01T03:31:55.879Z,14.35
2023-06-01T03:34:24.701Z,14.51
2023-06-01T03:36:53.270Z,14.53
2023-06-01T03:39:46.802Z,14.52
2023-06-01T03:42:14.687Z,14.67
2023-06-01T03:44:42.791Z,14.51
2023-06-01T03:47:10.496Z,14.48
2023-06-01T03:49:38.272Z,14.46
2023-06-01T03:52:09.313Z,14.68
2023-06-01T03:54:37.001Z,14.58
2023-06-01T03:57:09.776Z,14.69
2023-06-01T03:59:37.246Z,14.75
2023-06-01T04:02:06.003Z,14.82
2023-06-01T04:04:33.947Z,14.88
2023-06-01T04:07:03.679Z,15.00
2023-06-01T04:09:31.906Z,14.79
2023-06-01T04:12:00.076Z,14.90
2023-06-01T04:14:27.691Z,14.86
2023-06-01T04:16:55.240Z,14.56
2023-06-01T04:19:23.688Z,14.50
2023-06-01T04:21:58.263Z,14.59
2023-06-01T04:24:26.393Z,14.79
2023-06-01T04:26:53.897Z,15.04
2023-06-01T04:29:22.333Z,14.81
2023-06-01T04:31:50.518Z,14.92
2023-06-01T04:34:18.779Z,15.09
2023-06-01T04:36:47.450Z,15.22
2023-06-01T04:39:14.705Z,15.38
2023-06-01T04:41:41.971Z,15.28
2023-06-01T04:44:09.824Z,14.97
2023-06-01T04:46:40.231Z,15.19
2023-06-01T04:49:07.978Z,15.24
2023-06-01T04:51:37.653Z,14.92
2023-06-01T04:54:06.601Z,14.85
2023-06-01T04:56:34.972Z,14.83
2023-06-01T04:59:02.468Z,15.03
2023-06-01T05:01:31.949Z,14.70
2023-06-01T05:03:59.679Z,15.00
2023-06-01T05:06:28.214Z,15.33
2023-06-01T05:08:56.421Z,15.64
2023-06-01T05:11:24.384Z,15.28
2023-06-01T05:13:58.849Z,15.30
2023-06-01T05:16:26.554Z,15.40
2023-06-01T05:18:54.828Z,15.70
2023-06-01T05:21:26.238Z,15.71
2023-06-01T05:23:54.367Z,15.82
2023-06-01T05:26:23.246Z,15.52
2023-06-01T05:28:50.863Z,15.54
2023-06-01T05:31:18.267Z,15.75
2023-06-01T05:33:52.170Z,16.00
2023-06-01T05:36:20.099Z,16.12
2023-06-01T05:38:48.324Z,16.26
2023-06-01T05:41:15.859Z,16.03
2023-06-01T05:43:43.274Z,16.41
2023-06-01T05:46:10.581Z,16.67
2023-06-01T05:48:40.902Z,16.17
2023-06-01T05:51:08.927Z,16.43
2023-06-01T05:53:36.051Z,16.64
2023-06-01T05:56:03.731Z,16.48
2023-06-01T05:58:31.686Z,16.83
2023-06-01T06:01:00.033Z,17.10
2023-06-01T06:03:27.679Z,17.28
2023-06-01T06:05:54.950Z,17.46
2023-06-01T06:08:22.382Z,17.50
2023-06-01T06:10:49.701Z,17.44
2023-06-01T06:13:17.125Z,17.38
2023-06-01T06:15:44.661Z,17.53
2023-06-01T06:18:12.156Z,17.49
2023-06-01T06:20:39.422Z,17.75
2023-06-01T06:23:06.613Z,17.92
2023-06-01T06:25:34.461Z,18.15
2023-06-01T06:28:01.817Z,18.22
2023-06-01T06:30:29.207Z,18.45
2023-06-01T06:32:56.464Z,18.50
2023-06-01T06:35:23.734Z,18.60
2023-06-01T06:37:50.949Z,18.81
2023-06-01T06:40:19.518Z,18.96
2023-06-01T06:42:47.615Z,19.18
2023-06-01T06:45:14.856Z,19.42
2023-06-01T06:47:43.094Z,19.61
2023-06-01T06:50:11.423Z,19.78
2023-06-01T06:52:38.809Z,20.02
2023-06-01T06:55:07.490Z,20.15
2023-06-01T06:57:35.647Z,20.08
2023-06-01T07:00:05.689Z,19.98
2023-06-01T07:02:38.710Z,20.11
2023-06-01T07:05:07.117Z,20.17
2023-06-01T07:07:34.447Z,20.38
2023-06-01T07:10:01.671Z,20.60
2023-06-01T07:12:31.878Z,20.49
2023-06-01T07:14:59.147Z,20.63
2023-06-01T07:17:26.475Z,20.53
2023-06-01T07:19:53.753Z,20.94
2023-06-01T07:22:22.309Z,21.21
2023-06-01T07:24:49.458Z,21.41
2023-06-01T07:27:18.123Z,21.57
2023-06-01T07:29:45.776Z,21.18
2023-06-01T07:32:13.214Z,21.56
2023-06-01T07:34:40.580Z,21.65
2023-06-01T07:37:17.861Z,21.69
2023-06-01T07:39:46.262Z,21.51
2023-06-01T07:42:13.983Z,21.55
2023-06-01T07:44:41.803Z,21.54
2023-06-01T07:47:09.322Z,21.49
2023-06-01T07:49:37.528Z,21.67
2023-06-01T07:52:06.894Z,21.88
2023-06-01T07:54:38.521Z,21.74
2023-06-01T07:57:07.452Z,22.14
2023-06-01T07:59:36.735Z,22.50
2023-06-01T08:02:04.527Z,22.66
2023-06-01T08:04:35.291Z,23.08
2023-06-01T08:07:07.443Z,23.42
2023-06-01T08:09:38.728Z,23.71
2023-06-01T08:12:08.084Z,23.99
2023-06-01T08:14:35.461Z,24.26
2023-06-01T08:17:03.961Z,24.24
2023-06-01T08:19:32.376Z,24.45
2023-06-01T08:22:00.181Z,24.67
2023-06-01T08:24:35.525Z,24.73
2023-06-01T08:27:05.363Z,24.93
2023-06-01T08:29:41.811Z,25.08
2023-06-01T08:32:11.008Z,25.13
2023-06-01T08:34:38.236Z,25.27
2023-06-01T08:37:31.122Z,25.46
2023-06-01T08:40:01.015Z,25.43
2023-06-01T08:42:40.408Z,25.42
2023-06-01T08:45:08.737Z,25.37
2023-06-01T08:47:40.936Z,25.53
2023-06-01T08:50:12.233Z,25.13
2023-06-01T08:52:42.400Z,25.18
2023-06-01T08:55:11.666Z,24.99
2023-06-01T08:57:43.109Z,25.53
2023-06-01T09:00:16.503Z,25.74
2023-06-01T09:02:44.924Z,25.92
2023-06-01T09:05:14.089Z,26.09
2023-06-01T09:07:44.895Z,26.11
2023-06-01T09:10:12.702Z,26.26
2023-06-01T09:12:53.677Z,26.25
2023-06-01T09:15:26.720Z,25.81
2023-06-01T09:18:08.957Z,26.06
2023-06-01T09:20:38.388Z,26.02
2023-06-01T09:23:06.343Z,26.10
2023-06-01T09:25:35.313Z,26.47
2023-06-01T09:28:03.632Z,26.66
2023-06-01T09:30:44.274Z,26.92
2023-06-01T09:33:19.486Z,26.82
2023-06-01T09:35:51.132Z,27.03
2023-06-01T09:38:27.643Z,27.45
2023-06-01T09:41:04.599Z,27.51
2023-06-01T09:43:39.029Z,27.85
2023-06-01T09:46:14.882Z,27.87
2023-06-01T09:48:45.045Z,28.02
2023-06-01T09:51:30.893Z,28.22
2023-06-01T09:53:58.891Z,28.08
2023-06-01T09:56:26.858Z,28.20
2023-06-01T09:59:00.895Z,28.19
2023-06-01T10:01:33.059Z,28.32
2023-06-01T10:04:06.318Z,28.47
2023-06-01T10:06:43.998Z,28.80
2023-06-01T10:09:16.845Z,28.74
2023-06-01T10:11:44.352Z,28.75
2023-06-01T10:14:11.735Z,27.89
2023-06-01T10:16:41.680Z,28.41
2023-06-01T10:19:11.838Z,28.79
2023-06-01T10:21:41.265Z,29.03
2023-06-01T10:24:10.491Z,29.08
2023-06-01T10:27:02.363Z,28.97
2023-06-01T10:29:32.164Z,29.24
2023-06-01T10:31:59.375Z,29.37
2023-06-01T10:34:47.179Z,29.69
2023-06-01T10:37:19.074Z,29.10
2023-06-01T10:39:46.912Z,28.87
2023-06-01T10:42:14.351Z,28.63
2023-06-01T10:44:41.916Z,29.12
2023-06-01T10:47:12.151Z,29.57
2023-06-01T10:49:48.698Z,29.62
2023-06-01T10:52:35.516Z,29.92
2023-06-01T10:55:15.518Z,30.37
2023-06-01T10:57:45.507Z,30.57
2023-06-01T11:00:21.700Z,30.14
2023-06-01T11:03:06.964Z,30.32
2023-06-01T11:05:37.974Z,30.36
2023-06-01T11:08:22.980Z,30.77
2023-06-01T11:10:53.242Z,30.95
2023-06-01T11:13:34.842Z,31.21
2023-06-01T11:16:10.322Z,31.13
2023-06-01T11:19:00.059Z,31.15
2023-06-01T11:21:41.442Z,31.51
2023-06-01T11:24:15.705Z,31.52
2023-06-01T11:26:50.718Z,31.40
2023-06-01T11:29:22.977Z,31.76
2023-06-01T11:31:57.109Z,32.01
2023-06-01T11:34:45.633Z,32.04
2023-06-01T11:37:41.536Z,32.18
2023-06-01T11:40:11.515Z,31.65
2023-06-01T11:42:38.707Z,31.49
2023-06-01T11:45:07.012Z,31.29
2023-06-01T11:47:34.617Z,32.55
2023-06-01T11:50:01.860Z,33.29
2023-06-01T11:52:30.540Z,33.88
2023-06-01T11:55:05.778Z,34.66
2023-06-01T11:57:33.693Z,35.41
2023-06-01T12:00:01.256Z,36.03
2023-06-01T12:02:32.104Z,37.04
2023-06-01T12:05:09.892Z,38.28
2023-06-01T12:07:53.054Z,38.90
2023-06-01T12:10:22.667Z,37.69
2023-06-01T12:12:51.549Z,37.90
2023-06-01T12:15:20.287Z,38.66
2023-06-01T12:20:44.169Z,40.73
2023-06-01T12:23:17.752Z,39.21
2023-06-01T12:25:58.632Z,38.20
2023-06-01T12:28:30.388Z,37.93
2023-06-01T12:31:16.502Z,39.37
2023-06-01T12:33:46.369Z,40.27
2023-06-01T12:36:36.596Z,41.05
2023-06-01T12:39:06.489Z,42.21
2023-06-01T12:41:34.233Z,42.89
2023-06-01T12:44:01.909Z,42.94
2023-06-01T12:46:34.348Z,43.31
2023-06-01T12:49:22.272Z,40.96
2023-06-01T12:51:49.498Z,42.34
2023-06-01T12:54:18.497Z,41.81
2023-06-01T12:56:48.556Z,42.89
2023-06-01T12:59:16.302Z,44.32
2023-06-01T13:01:44.744Z,44.89
2023-06-01T13:04:12.640Z,45.18
2023-06-01T13:06:40.359Z,45.83
2023-06-01T13:09:08.927Z,46.09
2023-06-01T13:11:36.500Z,46.30
2023-06-01T13:14:03.808Z,46.67
2023-06-01T13:16:31.055Z,47.09
2023-06-01T13:19:01.522Z,47.48
2023-06-01T13:21:28.910Z,47.08
2023-06-01T13:23:56.499Z,48.14
2023-06-01T13:26:26.629Z,48.45
2023-06-01T13:28:53.938Z,48.90
2023-06-01T13:31:22.098Z,48.28
2023-06-01T13:33:51.582Z,48.69
2023-06-01T13:36:18.886Z,47.99
2023-06-01T13:38:46.689Z,46.58
2023-06-01T13:41:13.931Z,44.44
2023-06-01T13:43:41.867Z,44.24
2023-06-01T13:46:10.862Z,45.04
2023-06-01T13:48:38.733Z,45.66
2023-06-01T13:51:07.314Z,45.57
2023-06-01T13:53:35.264Z,46.04
2023-06-01T13:56:04.068Z,47.01
2023-06-01T13:58:35.368Z,47.02
2023-06-01T14:01:02.857Z,46.54
2023-06-01T14:03:30.606Z,46.46
2023-06-01T14:05:58.412Z,46.70
2023-06-01T14:08:26.245Z,45.93
2023-06-01T14:10:53.862Z,44.99
2023-06-01T14:13:21.147Z,45.28
2023-06-01T14:15:48.883Z,45.17
2023-06-01T14:18:16.432Z,45.47
2023-06-01T14:20:44.242Z,45.84
2023-06-01T14:23:15.263Z,45.98
2023-06-01T14:25:42.878Z,45.97
2023-06-01T14:28:10.245Z,46.14
2023-06-01T14:30:37.562Z,44.77
2023-06-01T14:33:04.896Z,45.10
2023-06-01T14:35:34.275Z,45.09
2023-06-01T14:38:02.158Z,45.60
2023-06-01T14:40:29.762Z,46.16
2023-06-01T14:42:57.536Z,46.23
2023-06-01T14:45:24.719Z,46.19
2023-06-01T14:47:52.353Z,46.36
2023-06-01T14:50:21.085Z,45.77
2023-06-01T14:52:48.836Z,46.07
2023-06-01T14:55:17.934Z,45.93
2023-06-01T14:57:45.840Z,46.16
2023-06-01T15:00:14.123Z,45.26
2023-06-01T15:02:41.500Z,44.34
2023-06-01T15:05:09.697Z,45.34
2023-06-01T15:07:37.516Z,45.44
2023-06-01T15:10:06.264Z,45.26
2023-06-01T15:12:34.040Z,44.47
2023-06-01T15:15:01.395Z,44.41
2023-06-01T15:17:28.751Z,44.41
2023-06-01T15:19:56.992Z,42.46
2023-06-01T15:22:24.331Z,43.86
2023-06-01T15:24:51.996Z,44.21
2023-06-01T15:27:20.647Z,44.52
2023-06-01T15:29:48.199Z,43.63
2023-06-01T15:32:15.533Z,44.15
2023-06-01T15:34:43.327Z,43.59
2023-06-01T15:37:13.082Z,43.80
2023-06-01T15:39:41.620Z,44.05
2023-06-01T15:42:11.201Z,43.45
2023-06-01T15:44:45.010Z,43.95
2023-06-01T15:47:13.026Z,44.58
2023-06-01T15:49:41.017Z,44.54
2023-06-01T15:52:09.032Z,45.63
2023-06-01T15:54:37.326Z,46.24
2023-06-01T15:57:05.468Z,45.74
2023-06-01T15:59:33.183Z,45.71
2023-06-01T16:02:01.854Z,45.33
2023-06-01T16:04:29.367Z,42.10
2023-06-01T16:06:57.527Z,43.27
2023-06-01T16:09:25.501Z,43.55
2023-06-01T16:11:52.676Z,42.85
2023-06-01T16:14:20.055Z,42.19
2023-06-01T16:16:48.338Z,41.35
2023-06-01T16:19:16.319Z,40.35
2023-06-01T16:21:43.871Z,39.39
2023-06-01T16:24:11.540Z,37.58
2023-06-01T16:26:38.968Z,37.78
2023-06-01T16:29:06.134Z,37.48
2023-06-01T16:31:33.497Z,36.58
2023-06-01T16:34:00.943Z,36.67
2023-06-01T16:36:28.162Z,36.73
2023-06-01T16:38:55.667Z,35.68
2023-06-01T16:41:24.536Z,35.46
2023-06-01T16:43:51.834Z,35.52
2023-06-01T16:46:19.540Z,35.81
2023-06-01T16:48:47.104Z,35.84
2023-06-01T16:51:14.446Z,35.57
2023-06-01T16:53:41.889Z,35.51
2023-06-01T16:56:09.371Z,35.06
2023-06-01T16:58:36.836Z,35.16
2023-06-01T17:01:04.701Z,35.18
2023-06-01T17:03:32.479Z,34.81
2023-06-01T17:05:59.854Z,34.66
2023-06-01T17:08:27.618Z,34.35
2023-06-01T17:10:55.470Z,34.21
2023-06-01T17:13:22.788Z,33.92
2023-06-01T17:15:50.621Z,33.56
2023-06-01T17:18:18.273Z,33.39
2023-06-01T17:20:46.099Z,33.50
2023-06-01T17:23:14.692Z,33.47
2023-06-01T17:25:43.303Z,33.27
2023-06-01T17:28:10.746Z,32.98
2023-06-01T17:30:38.739Z,32.90
2023-06-01T17:33:06.269Z,32.77
2023-06-01T17:35:33.605Z,32.55
2023-06-01T17:38:01.322Z,32.32
2023-06-01T17:40:28.669Z,32.42
2023-06-01T17:42:55.978Z,32.06
2023-06-01T17:45:23.992Z,32.19
2023-06-01T17:47:51.585Z,32.16
2023-06-01T17:50:19.146Z,32.07
2023-06-01T17:52:46.490Z,32.06
2023-06-01T17:55:14.061Z,31.89
2023-06-01T17:57:41.768Z,31.68
2023-06-01T18:00:10.515Z,31.58
2023-06-01T18:02:37.655Z,31.39
2023-06-01T18:05:05.546Z,31.42
2023-06-01T18:07:33.453Z,31.17
2023-06-01T18:10:01.036Z,31.07
2023-06-01T18:12:28.645Z,31.03
2023-06-01T18:14:56.170Z,30.71
2023-06-01T18:17:23.627Z,30.57
2023-06-01T18:19:51.441Z,30.34
2023-06-01T18:22:19.150Z,30.23
2023-06-01T18:24:46.689Z,30.18
2023-06-01T18:27:14.345Z,30.01
2023-06-01T18:29:41.672Z,29.70
2023-06-01T18:32:09.059Z,29.53
2023-06-01T18:34:36.446Z,29.34
2023-06-01T18:37:03.751Z,29.19
2023-06-01T18:39:31.343Z,29.04
2023-06-01T18:41:59.297Z,28.89
2023-06-01T18:44:26.993Z,28.74
2023-06-01T18:46:54.300Z,28.54
2023-06-01T18:49:22.850Z,28.47
2023-06-01T18:51:50.743Z,28.36
2023-06-01T18:54:18.284Z,28.27
2023-06-01T18:56:48.464Z,28.14
2023-06-01T18:59:16.633Z,28.04
2023-06-01T19:01:44.313Z,27.91
2023-06-01T19:04:11.980Z,27.80
2023-06-01T19:06:39.230Z,27.68
2023-06-01T19:09:06.908Z,27.45
2023-06-01T19:11:34.234Z,27.33
2023-06-01T19:14:01.559Z,27.14
2023-06-01T19:16:32.777Z,26.87
2023-06-01T19:19:04.190Z,26.70
2023-06-01T19:21:33.354Z,26.48
2023-06-01T19:24:11.948Z,26.46
2023-06-01T19:26:40.577Z,25.64
2023-06-01T19:29:12.152Z,25.51
2023-06-01T19:31:44.756Z,25.71
2023-06-01T19:34:14.206Z,25.76
2023-06-01T19:36:44.621Z,25.67
2023-06-01T19:39:39.303Z,25.57
2023-06-01T19:42:36.867Z,25.54
2023-06-01T19:45:06.039Z,25.41
2023-06-01T19:47:59.550Z,25.18
2023-06-01T19:50:44.853Z,25.08
2023-06-01T19:53:15.755Z,25.03
2023-06-01T19:55:44.275Z,24.72
2023-06-01T19:58:11.709Z,24.77
2023-06-01T20:00:39.124Z,24.74
2023-06-01T20:03:14.965Z,24.66
2023-06-01T20:05:42.180Z,24.65
2023-06-01T20:08:15.001Z,24.55
2023-06-01T20:10:42.300Z,24.45
2023-06-01T20:13:09.706Z,24.44
2023-06-01T20:15:44.561Z,24.17
2023-06-01T20:18:12.856Z,23.99
2023-06-01T20:20:46.449Z,23.91
2023-06-01T20:23:19.132Z,23.89
2023-06-01T20:25:48.844Z,23.80
2023-06-01T20:28:16.599Z,23.76
2023-06-01T20:31:05.300Z,23.76
2023-06-01T20:33:35.342Z,23.74
2023-06-01T20:36:07.873Z,23.50
2023-06-01T20:38:41.187Z,23.58
2023-06-01T20:41:23.692Z,23.57
2023-06-01T20:43:55.913Z,23.46
2023-06-01T20:46:27.124Z,23.45
2023-06-01T20:49:05.046Z,23.48
2023-06-01T20:51:37.840Z,23.29
2023-06-01T20:54:13.064Z,23.22
2023-06-01T20:56:47.892Z,23.21
2023-06-01T20:59:32.808Z,23.00
2023-06-01T21:02:06.976Z,23.23
2023-06-01T21:04:38.872Z,23.24
2023-06-01T21:07:08.532Z,23.12
2023-06-01T21:09:35.867Z,23.19
2023-06-01T21:12:03.584Z,23.09
2023-06-01T21:14:32.218Z,23.07
2023-06-01T21:17:00.026Z,23.01
2023-06-01T21:19:27.840Z,22.64
2023-06-01T21:21:55.842Z,22.60
2023-06-01T21:24:23.813Z,22.67
2023-06-01T21:26:51.334Z,22.62
2023-06-01T21:29:18.889Z,22.61
2023-06-01T21:31:46.924Z,22.63
2023-06-01T21:34:14.552Z,22.51
2023-06-01T21:36:42.078Z,22.52
2023-06-01T21:39:09.914Z,22.40
2023-06-01T21:41:37.878Z,22.35
2023-06-01T21:44:08.077Z,22.30
2023-06-01T21:46:35.708Z,22.25
2023-06-01T21:49:03.167Z,22.30
2023-06-01T21:51:30.854Z,22.24
2023-06-01T21:53:58.685Z,22.28
2023-06-01T21:56:26.520Z,22.16
2023-06-01T21:58:54.864Z,22.07
2023-06-01T22:01:24.619Z,22.07
2023-06-01T22:03:52.232Z,22.08
2023-06-01T22:06:19.914Z,22.02
2023-06-01T22:08:47.906Z,21.95
2023-06-01T22:11:15.449Z,22.02
2023-06-01T22:13:43.410Z,21.92
2023-06-01T22:16:11.055Z,21.61
2023-06-01T22:18:38.722Z,21.81
2023-06-01T22:21:07.372Z,21.77
2023-06-01T22:23:34.774Z,21.71
2023-06-01T22:26:04.346Z,21.52
2023-06-01T22:28:32.484Z,21.37
2023-06-01T22:30:59.891Z,21.50
2023-06-01T22:33:27.334Z,21.30
2023-06-01T22:35:54.664Z,21.29
2023-06-01T22:38:21.990Z,21.22
2023-06-01T22:40:49.580Z,21.30
2023-06-01T22:43:17.094Z,21.38
2023-06-01T22:45:44.879Z,21.37
2023-06-01T22:48:32.249Z,21.41
2023-06-01T22:51:01.441Z,21.44
2023-06-01T22:53:29.171Z,21.40
2023-06-01T22:55:56.616Z,21.40
2023-06-01T22:58:23.963Z,21.40
2023-06-01T23:00:51.651Z,21.35
2023-06-01T23:03:19.761Z,21.41
2023-06-01T23:05:50.666Z,21.32
2023-06-01T23:08:22.134Z,21.33
2023-06-01T23:10:50.739Z,21.16
2023-06-01T23:13:26.179Z,21.01
2023-06-01T23:15:56.790Z,20.99
2023-06-01T23:18:30.044Z,21.06
2023-06-01T23:20:57.396Z,20.99
2023-06-01T23:23:26.117Z,20.89
2023-06-01T23:25:55.222Z,20.74
2023-06-01T23:28:22.900Z,20.65
2023-06-01T23:30:53.801Z,20.54
2023-06-01T23:33:21.166Z,20.43
2023-06-01T23:35:48.576Z,20.32
2023-06-01T23:38:16.490Z,20.08
2023-06-01T23:40:43.810Z,20.13
2023-06-01T23:43:11.072Z,20.18
2023-06-01T23:45:38.647Z,19.99
2023-06-01T23:48:07.100Z,19.88
2023-06-01T23:50:34.773Z,19.85
2023-06-01T23:53:02.030Z,19.77
2023-06-01T23:55:29.462Z,19.73
2023-06-01T23:57:56.749Z,19.69
